Terminal Aerodrome Forecast
Issued by NWS

Home | Current Version | Previous Version | Text Only | Print | Product List | Glossary On
Versions: 1 2 3 4 5 6 7 8 9 10 11 12 13 14 15 16 17 18 19 20 21 22 23 24 25 26
000
FTUS41 KBUF 302300
TAFJHW
TAF
KJHW 302325Z 0100/0124 32006KT P6SM VCSH SCT050
     FM010200 07005KT P6SM VCSH SCT035 OVC050
     FM010300 08004KT P6SM SCT035 OVC060
     FM010700 VRB03KT 5SM BR BKN120
     FM010900 VRB03KT 2SM BR SCT100
     FM011300 09005KT P6SM BKN250
     FM012300 VRB03KT P6SM SCT250
      AMD LTD TO CLD VIS AND WIND=

USA.gov is the U.S. government's official web portal to all federal, state and local government web resources and services.